createdAt,value
2017-02-03T00:00:15.469Z,0
2017-02-03T00:01:26.215Z,0
2017-02-03T00:02:36.963Z,0
2017-02-03T00:03:47.713Z,0
2017-02-03T00:04:58.087Z,0
2017-02-03T00:06:08.049Z,0
2017-02-03T00:07:18.796Z,0
2017-02-03T00:08:29.144Z,0
2017-02-03T00:09:39.107Z,0
2017-02-03T00:10:49.081Z,0
2017-02-03T00:11:59.032Z,0
2017-02-03T00:13:09.384Z,0
2017-02-03T00:14:19.733Z,0
2017-02-03T00:15:30.085Z,0
2017-02-03T00:16:40.438Z,0
2017-02-03T00:17:50.800Z,0
2017-02-03T00:19:01.542Z,0
2017-02-03T00:20:12.293Z,0
2017-02-03T00:21:22.658Z,0
2017-02-03T00:22:33.410Z,0
2017-02-03T00:23:44.167Z,0
2017-02-03T00:24:54.513Z,0
2017-02-03T00:26:05.260Z,0
2017-02-03T00:27:16.019Z,0
2017-02-03T00:28:26.764Z,0
2017-02-03T00:29:37.510Z,0
2017-02-03T00:30:48.253Z,0
2017-02-03T00:31:59.005Z,0
2017-02-03T00:33:09.352Z,0
2017-02-03T00:34:19.738Z,0
2017-02-03T00:35:30.086Z,0
2017-02-03T00:36:40.852Z,0
2017-02-03T00:37:50.815Z,0
2017-02-03T00:39:01.612Z,0
2017-02-03T00:40:11.961Z,0
2017-02-03T00:41:22.690Z,0
2017-02-03T00:42:32.648Z,0
2017-02-03T00:43:42.616Z,0
2017-02-03T00:44:53.374Z,0
2017-02-03T00:46:03.352Z,0
2017-02-03T00:47:14.101Z,0
2017-02-03T00:48:24.847Z,0
2017-02-03T00:49:34.805Z,0
2017-02-03T00:50:45.561Z,0
2017-02-03T00:51:56.299Z,0
2017-02-03T00:53:07.048Z,0
2017-02-03T00:54:17.001Z,0
2017-02-03T00:55:27.360Z,0
2017-02-03T00:56:38.032Z,0
2017-02-03T00:57:47.998Z,0
2017-02-03T00:58:57.954Z,0
2017-02-03T01:00:08.324Z,0
2017-02-03T01:01:18.702Z,0
2017-02-03T01:02:29.441Z,0
2017-02-03T01:03:39.012Z,0
2017-02-03T01:04:49.751Z,0
2017-02-03T01:05:59.709Z,0
2017-02-03T01:07:10.459Z,0
2017-02-03T01:08:21.225Z,0
2017-02-03T01:09:30.789Z,0
2017-02-03T01:10:41.133Z,0
2017-02-03T01:11:51.883Z,0
2017-02-03T01:13:02.631Z,0
2017-02-03T01:14:13.370Z,0
2017-02-03T01:15:24.124Z,0
2017-02-03T01:16:34.490Z,0
2017-02-03T01:17:45.247Z,0
2017-02-03T01:18:55.987Z,0
2017-02-03T01:20:06.375Z,0
2017-02-03T01:21:17.115Z,0
2017-02-03T01:22:26.679Z,0
2017-02-03T01:23:37.434Z,0
2017-02-03T01:24:48.178Z,0
2017-02-03T01:25:58.146Z,0
2017-02-03T01:27:08.532Z,0
2017-02-03T01:28:19.293Z,0
2017-02-03T01:29:30.016Z,0
2017-02-03T01:30:40.756Z,0
2017-02-03T01:31:50.318Z,0
2017-02-03T01:33:01.063Z,0
2017-02-03T01:34:11.420Z,0
2017-02-03T01:35:21.776Z,0
2017-02-03T01:36:32.133Z,0
2017-02-03T01:37:42.479Z,0
2017-02-03T01:38:52.918Z,0
2017-02-03T01:40:02.876Z,0
2017-02-03T01:41:13.219Z,0
2017-02-03T01:42:23.566Z,0
2017-02-03T01:43:33.128Z,0
2017-02-03T01:44:43.871Z,0
2017-02-03T01:45:54.220Z,0
2017-02-03T01:47:04.979Z,0
2017-02-03T01:48:15.715Z,0
2017-02-03T01:49:26.072Z,0
2017-02-03T01:50:36.819Z,0
2017-02-03T01:51:47.166Z,0
2017-02-03T01:52:57.921Z,0
2017-02-03T01:54:08.285Z,0
2017-02-03T01:55:19.027Z,0
2017-02-03T01:56:29.387Z,0
2017-02-03T01:57:39.752Z,0
2017-02-03T01:58:50.112Z,0
2017-02-03T02:00:00.456Z,0
2017-02-03T02:01:10.806Z,0
2017-02-03T02:02:21.551Z,0
2017-02-03T02:03:32.311Z,0
2017-02-03T02:04:42.660Z,0
2017-02-03T02:05:53.038Z,0
2017-02-03T02:07:03.798Z,0
2017-02-03T02:08:14.142Z,0
2017-02-03T02:09:24.087Z,0
2017-02-03T02:10:34.434Z,0
2017-02-03T02:11:45.180Z,0
2017-02-03T02:12:55.533Z,4
2017-02-03T02:14:05.876Z,0
2017-02-03T02:15:16.219Z,0
2017-02-03T02:16:26.962Z,0
2017-02-03T02:17:37.348Z,0
2017-02-03T02:18:48.089Z,0
2017-02-03T02:19:58.053Z,0
2017-02-03T02:21:08.805Z,0
2017-02-03T02:22:19.159Z,0
2017-02-03T02:23:29.127Z,0
2017-02-03T02:24:39.484Z,0
2017-02-03T02:25:49.839Z,0
2017-02-03T02:27:00.209Z,0
2017-02-03T02:28:10.566Z,0
2017-02-03T02:29:20.535Z,0
2017-02-03T02:30:31.292Z,0
2017-02-03T02:31:42.042Z,0
2017-02-03T02:32:52.789Z,0
2017-02-03T02:34:03.556Z,0
2017-02-03T02:35:13.905Z,0
2017-02-03T02:36:24.644Z,0
2017-02-03T02:37:35.378Z,0
2017-02-03T02:38:46.125Z,0
2017-02-03T02:39:56.470Z,0
2017-02-03T02:41:06.428Z,0
2017-02-03T02:42:16.377Z,0
2017-02-03T02:43:25.545Z,0
2017-02-03T02:44:36.284Z,0
2017-02-03T02:45:47.057Z,0
2017-02-03T02:46:57.009Z,0
2017-02-03T02:48:07.353Z,0
2017-02-03T02:49:17.719Z,0
2017-02-03T02:50:28.056Z,0
2017-02-03T02:51:38.411Z,0
2017-02-03T02:52:48.377Z,0
2017-02-03T02:53:58.734Z,0
2017-02-03T02:55:09.096Z,0
2017-02-03T02:56:19.433Z,0
2017-02-03T02:57:30.180Z,0
2017-02-03T02:58:40.933Z,0
2017-02-03T02:59:51.283Z,0
2017-02-03T03:01:01.240Z,0
2017-02-03T03:33:16.082Z,0
2017-02-03T03:34:26.432Z,0
2017-02-03T03:35:36.805Z,4
2017-02-03T03:36:47.552Z,0
2017-02-03T03:37:58.530Z,4
2017-02-03T03:39:08.892Z,0
2017-02-03T03:40:19.635Z,0
2017-02-03T03:41:29.993Z,0
2017-02-03T03:42:40.746Z,0
2017-02-03T03:43:51.092Z,0
2017-02-03T03:45:01.444Z,0
2017-02-03T03:46:11.450Z,0
2017-02-03T03:47:22.228Z,0
2017-02-03T03:48:32.972Z,0
2017-02-03T03:49:43.314Z,0
2017-02-03T03:50:53.274Z,0
2017-02-03T03:52:03.620Z,0
2017-02-03T03:53:13.967Z,0
2017-02-03T03:54:24.710Z,0
2017-02-03T03:55:34.270Z,0
2017-02-03T03:56:45.014Z,0
2017-02-03T03:57:55.371Z,0
2017-02-03T03:59:05.727Z,0
2017-02-03T04:00:16.080Z,0
2017-02-03T04:01:26.423Z,4
2017-02-03T04:02:37.177Z,0
2017-02-03T04:03:47.521Z,0
2017-02-03T04:04:58.271Z,0
2017-02-03T04:06:08.617Z,0
2017-02-03T04:07:18.610Z,0
2017-02-03T04:08:29.176Z,0
2017-02-03T04:09:39.528Z,0
2017-02-03T04:10:49.874Z,0
2017-02-03T04:12:00.254Z,0
2017-02-03T04:13:11.004Z,0
2017-02-03T04:14:21.356Z,0
2017-02-03T04:15:31.722Z,0
2017-02-03T04:16:42.118Z,0
2017-02-03T04:17:52.066Z,0
2017-02-03T04:19:02.818Z,0
2017-02-03T04:20:13.560Z,0
2017-02-03T04:21:24.306Z,0
2017-02-03T04:22:35.044Z,0
2017-02-03T04:23:45.393Z,0
2017-02-03T04:24:55.747Z,0
2017-02-03T04:26:06.091Z,0
2017-02-03T04:27:16.046Z,0
2017-02-03T04:28:26.403Z,0
2017-02-03T04:29:35.967Z,0
2017-02-03T04:30:46.334Z,0
2017-02-03T04:31:57.075Z,0
2017-02-03T04:33:07.810Z,0
2017-02-03T04:34:18.589Z,0
2017-02-03T04:35:29.336Z,0
2017-02-03T04:36:39.676Z,0
2017-02-03T04:37:49.633Z,0
2017-02-03T04:39:00.373Z,0
2017-02-03T04:40:11.134Z,0
2017-02-03T04:41:21.488Z,0
2017-02-03T04:42:32.238Z,0
2017-02-03T04:43:43.018Z,0
2017-02-03T04:44:53.772Z,0
2017-02-03T04:46:04.514Z,0
2017-02-03T04:47:15.261Z,0
2017-02-03T04:48:26.019Z,0
2017-02-03T04:49:36.370Z,0
2017-02-03T04:50:46.711Z,0
2017-02-03T04:51:57.111Z,0
2017-02-03T04:53:07.854Z,0
2017-02-03T04:54:18.208Z,0
2017-02-03T04:55:28.983Z,0
2017-02-03T04:56:38.559Z,0
2017-02-03T04:57:48.971Z,0
2017-02-03T04:58:59.726Z,0
2017-02-03T05:00:10.480Z,0
2017-02-03T05:01:21.217Z,0
2017-02-03T05:02:31.964Z,0
2017-02-03T05:03:42.712Z,0
2017-02-03T05:04:53.078Z,0
2017-02-03T05:06:03.820Z,0
2017-02-03T05:07:14.185Z,0
2017-02-03T05:08:24.534Z,0
2017-02-03T05:09:34.487Z,0
2017-02-03T05:10:44.460Z,0
2017-02-03T05:11:55.204Z,0
2017-02-03T05:13:05.955Z,0
2017-02-03T05:14:16.691Z,4
2017-02-03T05:15:26.663Z,0
2017-02-03T05:16:37.415Z,0
2017-02-03T05:17:48.204Z,0
2017-02-03T05:18:58.548Z,0
2017-02-03T05:20:08.900Z,0
2017-02-03T05:21:18.847Z,0
2017-02-03T05:22:29.198Z,0
2017-02-03T05:23:39.154Z,0
2017-02-03T05:24:49.905Z,0
2017-02-03T05:25:59.859Z,0
2017-02-03T05:27:10.620Z,0
2017-02-03T05:28:20.963Z,0
2017-02-03T05:29:31.720Z,0
2017-02-03T05:30:42.065Z,0
2017-02-03T05:31:52.818Z,0
2017-02-03T05:33:03.568Z,0
2017-02-03T05:34:13.522Z,0
2017-02-03T05:35:23.476Z,0
2017-02-03T05:36:33.830Z,0
2017-02-03T05:37:44.169Z,0
2017-02-03T05:38:54.553Z,0
2017-02-03T05:40:05.301Z,0
2017-02-03T05:41:15.650Z,0
2017-02-03T05:42:26.428Z,0
2017-02-03T05:43:36.786Z,0
2017-02-03T05:44:47.536Z,0
2017-02-03T05:45:57.489Z,0
2017-02-03T05:47:07.835Z,0
2017-02-03T05:48:18.583Z,4
2017-02-03T05:49:29.324Z,4
2017-02-03T05:50:40.095Z,4
2017-02-03T05:51:50.063Z,4
2017-02-03T05:53:00.424Z,8
2017-02-03T05:54:11.162Z,4
2017-02-03T05:55:21.914Z,4
2017-02-03T05:56:32.659Z,4
2017-02-03T05:57:43.414Z,8
2017-02-03T05:58:53.777Z,4
2017-02-03T06:00:04.130Z,8
2017-02-03T06:01:14.870Z,8
2017-02-03T06:02:24.827Z,8
2017-02-03T06:03:35.563Z,12
2017-02-03T06:04:46.305Z,16
2017-02-03T06:05:57.040Z,12
2017-02-03T06:07:07.394Z,16
2017-02-03T06:08:18.153Z,20
2017-02-03T06:09:28.118Z,24
2017-02-03T06:10:38.864Z,28
2017-02-03T06:11:49.256Z,36
2017-02-03T06:12:59.638Z,36
2017-02-03T06:14:10.385Z,44
2017-02-03T06:15:20.729Z,48
2017-02-03T06:16:31.483Z,52
2017-02-03T06:17:42.225Z,56
2017-02-03T06:18:52.191Z,56
2017-02-03T06:20:02.533Z,64
2017-02-03T06:21:13.285Z,68
2017-02-03T06:22:24.042Z,76
2017-02-03T06:23:34.795Z,84
2017-02-03T06:24:45.545Z,96
2017-02-03T06:25:56.287Z,108
2017-02-03T06:27:06.633Z,120
2017-02-03T06:28:16.995Z,132
2017-02-03T06:29:27.748Z,148
2017-02-03T06:30:38.502Z,164
2017-02-03T06:31:49.245Z,172
2017-02-03T06:32:59.600Z,188
2017-02-03T06:34:09.174Z,208
2017-02-03T06:35:19.520Z,228
2017-02-03T06:36:30.299Z,240
2017-02-03T06:37:40.657Z,252
2017-02-03T06:38:51.397Z,260
2017-02-03T06:40:01.358Z,268
2017-02-03T06:41:11.735Z,284
2017-02-03T06:42:22.093Z,300
2017-02-03T06:43:32.839Z,308
2017-02-03T06:44:43.198Z,316
2017-02-03T06:45:53.956Z,328
2017-02-03T06:47:03.917Z,356
2017-02-03T06:48:14.279Z,396
2017-02-03T06:49:24.639Z,428
2017-02-03T06:50:34.600Z,448
2017-02-03T06:51:44.943Z,476
2017-02-03T06:52:55.308Z,516
2017-02-03T06:54:05.654Z,544
2017-02-03T06:55:16.020Z,544
2017-02-03T06:56:25.971Z,548
2017-02-03T06:57:36.718Z,568
2017-02-03T06:58:46.674Z,584
2017-02-03T06:59:57.050Z,592
2017-02-03T07:01:07.799Z,608
2017-02-03T07:02:18.157Z,616
2017-02-03T07:03:28.915Z,612
2017-02-03T07:04:39.669Z,616
2017-02-03T07:05:49.614Z,616
2017-02-03T07:07:00.355Z,612
2017-02-03T07:08:11.100Z,604
2017-02-03T07:09:21.847Z,584
2017-02-03T07:10:32.605Z,584
2017-02-03T07:11:43.333Z,588
2017-02-03T07:12:54.077Z,608
2017-02-03T07:14:04.436Z,636
2017-02-03T07:15:14.438Z,672
2017-02-03T07:16:24.810Z,692
2017-02-03T07:17:34.773Z,728
2017-02-03T07:18:45.514Z,768
2017-02-03T07:19:55.874Z,816
2017-02-03T07:21:06.632Z,856
2017-02-03T07:22:17.003Z,920
2017-02-03T07:23:27.366Z,992
2017-02-03T07:24:37.715Z,1056
2017-02-03T07:25:48.464Z,1180
2017-02-03T07:26:59.242Z,1372
2017-02-03T07:28:10.042Z,1484
2017-02-03T07:29:20.005Z,1500
2017-02-03T07:30:30.361Z,1548
2017-02-03T07:31:40.719Z,1752
2017-02-03T07:32:51.518Z,1836
2017-02-03T07:34:01.872Z,1960
2017-02-03T07:35:11.836Z,1992
2017-02-03T07:36:22.209Z,2140
2017-02-03T07:37:32.948Z,2148
2017-02-03T07:38:43.702Z,2204
2017-02-03T07:39:54.453Z,2184
2017-02-03T07:41:05.204Z,2196
2017-02-03T07:42:15.576Z,2188
2017-02-03T07:43:25.924Z,2132
2017-02-03T07:44:36.665Z,2120
2017-02-03T07:45:47.415Z,2040
2017-02-03T07:46:57.782Z,2024
2017-02-03T07:48:07.754Z,2196
2017-02-03T07:49:17.711Z,2336
2017-02-03T07:50:28.470Z,2412
2017-02-03T07:51:39.219Z,2376
2017-02-03T07:52:48.787Z,2260
2017-02-03T07:53:59.534Z,2180
2017-02-03T07:55:09.509Z,2188
2017-02-03T07:56:20.298Z,2268
2017-02-03T07:57:30.650Z,2324
2017-02-03T07:58:41.403Z,2812
2017-02-03T07:59:52.151Z,3184
2017-02-03T08:01:02.929Z,3260
2017-02-03T08:02:12.914Z,3328
2017-02-03T08:03:23.262Z,3332
2017-02-03T08:04:34.003Z,3360
2017-02-03T08:05:43.984Z,3488
2017-02-03T08:06:54.335Z,3544
2017-02-03T08:08:04.676Z,3564
2017-02-03T08:09:15.035Z,3656
2017-02-03T08:10:25.397Z,3760
2017-02-03T08:11:36.134Z,3824
2017-02-03T08:12:46.490Z,3808
2017-02-03T08:13:56.853Z,3856
2017-02-03T08:15:07.214Z,3852
2017-02-03T08:16:17.174Z,3864
2017-02-03T08:17:27.938Z,3888
2017-02-03T08:18:37.892Z,3948
2017-02-03T08:19:48.636Z,4032
2017-02-03T08:20:58.593Z,4108
2017-02-03T08:22:08.965Z,4292
2017-02-03T08:23:19.730Z,4348
2017-02-03T08:24:30.526Z,4228
2017-02-03T08:25:41.293Z,4200
2017-02-03T08:26:52.039Z,4188
2017-02-03T08:28:02.827Z,4132
2017-02-03T08:29:13.593Z,4124
2017-02-03T08:30:23.944Z,4164
2017-02-03T08:31:34.732Z,4076
2017-02-03T08:32:45.144Z,3988
2017-02-03T08:33:55.901Z,3832
2017-02-03T08:35:06.255Z,3636
2017-02-03T08:36:16.205Z,3552
2017-02-03T08:37:26.557Z,3452
2017-02-03T08:38:37.322Z,3276
2017-02-03T08:39:48.113Z,3192
2017-02-03T08:40:58.498Z,3056
2017-02-03T08:42:08.861Z,3060
2017-02-03T08:43:19.608Z,3244
2017-02-03T08:44:29.571Z,3884
2017-02-03T08:45:40.324Z,4176
2017-02-03T08:46:50.690Z,4312
2017-02-03T08:48:01.432Z,4340
2017-02-03T08:49:12.187Z,4336
2017-02-03T08:50:22.589Z,4252
2017-02-03T08:51:32.161Z,3920
2017-02-03T08:52:42.516Z,3564
2017-02-03T08:53:53.268Z,3536
2017-02-03T08:55:04.013Z,3620
2017-02-03T08:56:14.377Z,3836
2017-02-03T08:57:24.738Z,3988
2017-02-03T08:58:35.082Z,4084
2017-02-03T08:59:45.061Z,4124
2017-02-03T09:00:54.631Z,4044
2017-02-03T09:02:04.609Z,3864
2017-02-03T09:03:15.181Z,3680
2017-02-03T09:04:25.149Z,3736
2017-02-03T09:05:35.907Z,3788
2017-02-03T09:06:46.660Z,3728
2017-02-03T09:07:57.026Z,3640
2017-02-03T09:09:07.375Z,3764
2017-02-03T09:10:18.119Z,3876
2017-02-03T09:11:28.865Z,3904
2017-02-03T09:12:39.605Z,3848
2017-02-03T09:13:50.355Z,3872
2017-02-03T09:15:00.708Z,3804
2017-02-03T09:16:11.477Z,3724
2017-02-03T09:17:21.821Z,3724
2017-02-03T09:18:31.784Z,3704
2017-02-03T09:19:42.145Z,3632
2017-02-03T09:20:52.887Z,3588
2017-02-03T09:22:03.641Z,3492
2017-02-03T09:23:13.996Z,3344
2017-02-03T09:24:24.403Z,3212
2017-02-03T09:25:35.200Z,3156
2017-02-03T09:26:45.558Z,3192
2017-02-03T09:27:56.312Z,3052
2017-02-03T09:29:05.883Z,2800
2017-02-03T09:30:16.265Z,2636
2017-02-03T09:31:26.623Z,2520
2017-02-03T09:32:36.191Z,2436
2017-02-03T09:33:46.149Z,2584
2017-02-03T09:34:56.545Z,2576
2017-02-03T09:36:06.935Z,2440
2017-02-03T09:37:17.725Z,2392
2017-02-03T09:38:28.087Z,2332
2017-02-03T09:39:38.054Z,2456
2017-02-03T09:40:48.409Z,2552
2017-02-03T09:41:58.766Z,2620
2017-02-03T09:43:09.535Z,2472
2017-02-03T09:44:19.880Z,2280
2017-02-03T09:45:30.230Z,2340
2017-02-03T09:46:40.977Z,2600
2017-02-03T09:47:51.760Z,2500
2017-02-03T09:49:02.131Z,2528
2017-02-03T09:50:12.491Z,2844
2017-02-03T09:51:23.080Z,3208
2017-02-03T09:52:33.832Z,3468
2017-02-03T09:53:43.806Z,3688
2017-02-03T09:54:53.378Z,3780
2017-02-03T09:56:03.736Z,3856
2017-02-03T09:57:14.530Z,3860
2017-02-03T09:58:24.890Z,4068
2017-02-03T09:59:34.841Z,4444
2017-02-03T10:00:44.824Z,4612
2017-02-03T10:01:55.605Z,4740
2017-02-03T10:03:05.971Z,4836
2017-02-03T10:04:16.334Z,4880
2017-02-03T10:05:26.679Z,4920
2017-02-03T10:06:37.431Z,4964
2017-02-03T10:07:47.816Z,5204
2017-02-03T10:08:58.569Z,5576
2017-02-03T10:10:08.916Z,5984
2017-02-03T10:11:19.682Z,6324
2017-02-03T10:12:30.439Z,6500
2017-02-03T10:13:41.198Z,6528
2017-02-03T10:14:51.959Z,6460
2017-02-03T10:16:02.720Z,6360
2017-02-03T10:17:13.470Z,6260
2017-02-03T10:18:24.220Z,6068
2017-02-03T10:19:34.996Z,6012
2017-02-03T10:20:45.376Z,6020
2017-02-03T10:21:56.108Z,5892
2017-02-03T10:23:06.469Z,5820
2017-02-03T10:24:16.826Z,5924
2017-02-03T10:25:27.191Z,5908
2017-02-03T10:26:37.549Z,5444
2017-02-03T10:27:48.352Z,5284
2017-02-03T10:28:59.097Z,5440
2017-02-03T10:30:09.056Z,5532
2017-02-03T10:31:19.453Z,5448
2017-02-03T10:32:29.809Z,5224
2017-02-03T10:33:40.565Z,5248
2017-02-03T10:34:50.963Z,5596
2017-02-03T10:36:00.979Z,6460
2017-02-03T10:37:11.757Z,6976
2017-02-03T10:38:21.729Z,6748
2017-02-03T10:39:32.485Z,6476
2017-02-03T10:40:42.857Z,6488
2017-02-03T10:41:53.209Z,6376
2017-02-03T10:43:03.579Z,6232
2017-02-03T10:44:13.937Z,6432
2017-02-03T10:45:23.901Z,6260
2017-02-03T10:46:34.690Z,5916
2017-02-03T10:47:45.448Z,6280
2017-02-03T10:48:55.794Z,7104
2017-02-03T10:50:06.552Z,7588
2017-02-03T10:51:17.323Z,7808
2017-02-03T10:52:28.085Z,8120
2017-02-03T10:53:38.836Z,8048
2017-02-03T10:54:49.596Z,7440
2017-02-03T10:55:59.958Z,6668
2017-02-03T10:57:10.761Z,6148
2017-02-03T10:58:21.516Z,5936
2017-02-03T10:59:31.874Z,5992
2017-02-03T11:00:42.225Z,6108
2017-02-03T11:01:52.188Z,6220
2017-02-03T11:03:01.754Z,6272
2017-02-03T11:04:12.131Z,6580
2017-02-03T11:05:22.526Z,7048
2017-02-03T11:06:32.895Z,7260
2017-02-03T11:07:43.647Z,7540
2017-02-03T11:08:54.426Z,6684
2017-02-03T11:10:05.194Z,5856
2017-02-03T11:11:15.964Z,5596
2017-02-03T11:12:26.350Z,5500
2017-02-03T11:13:37.092Z,5436
2017-02-03T11:14:47.453Z,5348
2017-02-03T11:15:58.194Z,5288
2017-02-03T11:17:08.550Z,5344
2017-02-03T11:18:19.347Z,5440
2017-02-03T11:19:29.730Z,5540
2017-02-03T11:20:40.087Z,5600
2017-02-03T11:21:50.044Z,5760
2017-02-03T11:23:00.400Z,5924
2017-02-03T11:24:11.178Z,6032
2017-02-03T11:25:21.949Z,5972
2017-02-03T11:26:31.510Z,5780
2017-02-03T11:27:41.464Z,5608
2017-02-03T11:28:52.281Z,5488
2017-02-03T11:30:03.035Z,5360
2017-02-03T11:31:13.379Z,5260
2017-02-03T11:32:24.145Z,5176
2017-02-03T11:33:34.885Z,5200
2017-02-03T11:34:45.231Z,5288
2017-02-03T11:35:55.973Z,5420
2017-02-03T11:37:06.722Z,5500
2017-02-03T11:38:17.470Z,5524
2017-02-03T11:39:28.231Z,5612
2017-02-03T11:40:38.599Z,5688
2017-02-03T11:41:49.361Z,5808
2017-02-03T11:43:00.122Z,5872
2017-02-03T11:44:10.867Z,5804
2017-02-03T11:45:20.846Z,5664
2017-02-03T11:46:30.815Z,5560
2017-02-03T11:47:41.553Z,5456
2017-02-03T11:48:51.905Z,5388
2017-02-03T11:50:02.651Z,5340
2017-02-03T11:51:13.019Z,5320
2017-02-03T11:52:23.112Z,5232
2017-02-03T11:53:34.097Z,5080
2017-02-03T11:54:44.469Z,4920
2017-02-03T11:55:55.172Z,4744
2017-02-03T11:57:05.678Z,4608
2017-02-03T11:58:15.637Z,4488
2017-02-03T11:59:25.982Z,4440
2017-02-03T12:00:36.725Z,4416
2017-02-03T12:01:46.697Z,4372
2017-02-03T12:02:57.449Z,4272
2017-02-03T12:04:08.197Z,4180
2017-02-03T12:05:17.770Z,4112
2017-02-03T12:06:27.724Z,4100
2017-02-03T12:07:37.712Z,4096
2017-02-03T12:08:48.075Z,4124
2017-02-03T12:09:58.424Z,4140
2017-02-03T12:11:08.804Z,4172
2017-02-03T12:12:19.161Z,4236
2017-02-03T12:13:29.513Z,4268
2017-02-03T12:14:40.298Z,4240
2017-02-03T12:15:50.647Z,4188
2017-02-03T12:17:01.399Z,4116
2017-02-03T12:18:11.753Z,4084
2017-02-03T12:19:22.505Z,4108
2017-02-03T12:20:32.859Z,4184
2017-02-03T12:21:43.220Z,4284
2017-02-03T12:22:53.187Z,4372
2017-02-03T12:24:03.548Z,4508
2017-02-03T12:25:13.900Z,4632
2017-02-03T12:26:24.645Z,4672
2017-02-03T12:27:35.402Z,4652
2017-02-03T12:28:46.159Z,4636
2017-02-03T12:29:56.905Z,4652
2017-02-03T12:31:07.662Z,4684
2017-02-03T12:32:18.444Z,4680
2017-02-03T12:33:28.806Z,4632
2017-02-03T12:34:39.572Z,4528
2017-02-03T12:35:50.327Z,4408
2017-02-03T12:37:01.076Z,4296
2017-02-03T12:38:11.424Z,4180
2017-02-03T12:39:22.213Z,4164
2017-02-03T12:40:32.983Z,4100
2017-02-03T12:41:43.745Z,4000
2017-02-03T12:42:54.492Z,3884
2017-02-03T12:44:05.222Z,3784
2017-02-03T12:45:15.982Z,3728
2017-02-03T12:46:26.779Z,3708
2017-02-03T12:47:37.187Z,3708
2017-02-03T12:48:46.750Z,3640
2017-02-03T12:49:57.525Z,3556
2017-02-03T12:51:08.287Z,3512
2017-02-03T12:52:19.042Z,3484
2017-02-03T12:53:28.602Z,3472
2017-02-03T12:54:39.357Z,3408
2017-02-03T12:55:50.104Z,3288
2017-02-03T12:57:00.840Z,3164
2017-02-03T12:58:11.598Z,3052
2017-02-03T12:59:21.556Z,2968
2017-02-03T13:00:31.637Z,2940
2017-02-03T13:01:42.385Z,2904
2017-02-03T13:02:52.755Z,2880
2017-02-03T13:04:03.504Z,2868
2017-02-03T13:05:14.252Z,2836
2017-02-03T13:06:24.225Z,2772
2017-02-03T13:07:34.197Z,2720
2017-02-03T13:08:44.957Z,2728
2017-02-03T13:09:55.315Z,2760
2017-02-03T13:11:06.090Z,2776
2017-02-03T13:12:16.463Z,2792
2017-02-03T13:13:27.211Z,2800
2017-02-03T13:14:37.191Z,2840
2017-02-03T13:15:47.140Z,2864
2017-02-03T13:16:57.502Z,2856
2017-02-03T13:18:08.272Z,2824
2017-02-03T13:19:19.014Z,2808
2017-02-03T13:20:29.383Z,2764
2017-02-03T13:21:39.753Z,2704
2017-02-03T13:22:49.765Z,2664
2017-02-03T13:24:00.118Z,2644
2017-02-03T13:25:10.857Z,2620
2017-02-03T13:26:21.612Z,2588
2017-02-03T13:27:32.361Z,2588
2017-02-03T13:28:42.711Z,2608
2017-02-03T13:29:53.474Z,2636
2017-02-03T13:31:03.451Z,2668
2017-02-03T13:32:14.213Z,2696
2017-02-03T13:33:23.775Z,2720
2017-02-03T13:34:34.513Z,2724
2017-02-03T13:35:44.883Z,2684
2017-02-03T13:36:55.634Z,2600
2017-02-03T13:38:06.442Z,2480
2017-02-03T13:39:17.182Z,2364
2017-02-03T13:40:27.150Z,2272
2017-02-03T13:41:37.887Z,2188
2017-02-03T13:42:48.251Z,2148
2017-02-03T13:43:59.025Z,2120
2017-02-03T13:45:09.766Z,2072
2017-02-03T13:46:20.534Z,2028
2017-02-03T13:47:30.886Z,2016
2017-02-03T13:48:41.635Z,2016
2017-02-03T13:49:51.983Z,2020
2017-02-03T13:51:02.336Z,2000
2017-02-03T13:52:12.926Z,1988
2017-02-03T13:53:23.689Z,1988
2017-02-03T13:54:34.464Z,2012
2017-02-03T13:55:44.067Z,2036
2017-02-03T13:56:54.818Z,2052
2017-02-03T13:58:05.572Z,2056
2017-02-03T13:59:16.327Z,2052
2017-02-03T14:00:27.088Z,2044
2017-02-03T14:01:37.846Z,2036
2017-02-03T14:02:48.219Z,2008
2017-02-03T14:03:58.590Z,1952
2017-02-03T14:05:08.558Z,1880
2017-02-03T14:06:18.916Z,1808
2017-02-03T14:07:29.679Z,1732
2017-02-03T14:08:40.430Z,1680
2017-02-03T14:09:50.777Z,1644
2017-02-03T14:11:01.515Z,1620
2017-02-03T14:12:11.491Z,1608
2017-02-03T14:13:22.327Z,1624
2017-02-03T14:14:33.091Z,1664
2017-02-03T14:15:43.507Z,1716
2017-02-03T14:16:53.883Z,1796
2017-02-03T14:18:04.688Z,1868
2017-02-03T14:19:15.477Z,1928
2017-02-03T14:20:26.287Z,2028
2017-02-03T14:21:37.103Z,2164
2017-02-03T14:22:47.503Z,2232
2017-02-03T14:23:58.314Z,2256
2017-02-03T14:25:09.141Z,2284
2017-02-03T14:26:19.146Z,2324
2017-02-03T14:27:29.136Z,2320
2017-02-03T14:28:39.981Z,2292
2017-02-03T14:29:50.337Z,2288
2017-02-03T14:31:00.715Z,2344
2017-02-03T14:32:10.697Z,2420
2017-02-03T14:33:21.469Z,2464
2017-02-03T14:34:31.685Z,2472
2017-02-03T14:35:42.449Z,2548
2017-02-03T14:36:52.818Z,2596
2017-02-03T14:38:02.784Z,2560
2017-02-03T14:39:12.755Z,2504
2017-02-03T14:40:23.110Z,2456
2017-02-03T14:41:34.075Z,2464
2017-02-03T14:42:44.521Z,2492
2017-02-03T14:43:54.874Z,2492
2017-02-03T14:45:05.226Z,2480
2017-02-03T14:46:15.584Z,2388
2017-02-03T14:47:25.952Z,2328
2017-02-03T14:48:35.924Z,2312
2017-02-03T14:49:46.291Z,2244
2017-02-03T14:50:56.668Z,2076
2017-02-03T14:52:07.428Z,1960
2017-02-03T14:53:17.418Z,1880
2017-02-03T14:54:27.768Z,1764
2017-02-03T14:55:37.742Z,1664
2017-02-03T14:56:48.084Z,1596
2017-02-03T14:57:58.444Z,1556
2017-02-03T14:59:08.805Z,1464
2017-02-03T15:00:19.151Z,1360
2017-02-03T15:01:29.514Z,1288
2017-02-03T15:02:39.467Z,1240
2017-02-03T15:03:49.059Z,1204
2017-02-03T15:04:59.806Z,1188
2017-02-03T15:06:10.158Z,1136
2017-02-03T15:07:20.501Z,1056
2017-02-03T15:08:31.247Z,1032
2017-02-03T15:09:41.995Z,1008
2017-02-03T15:10:52.749Z,992
2017-02-03T15:12:03.503Z,1000
2017-02-03T15:13:14.251Z,992
2017-02-03T15:14:24.611Z,940
2017-02-03T15:15:34.578Z,912
2017-02-03T15:16:45.340Z,896
2017-02-03T15:17:56.097Z,860
2017-02-03T15:19:06.056Z,812
2017-02-03T15:20:16.037Z,788
2017-02-03T15:21:26.647Z,764
2017-02-03T15:22:37.006Z,704
2017-02-03T15:23:46.988Z,652
2017-02-03T15:24:56.944Z,600
2017-02-03T15:26:06.979Z,548
2017-02-03T15:27:17.739Z,508
2017-02-03T15:28:27.694Z,476
2017-02-03T15:29:37.661Z,448
2017-02-03T15:30:47.632Z,424
2017-02-03T15:31:57.993Z,392
2017-02-03T15:33:08.737Z,356
2017-02-03T15:34:18.705Z,324
2017-02-03T15:35:29.059Z,284
2017-02-03T15:36:39.414Z,256
2017-02-03T15:37:49.775Z,224
2017-02-03T15:39:00.124Z,200
2017-02-03T15:40:10.872Z,180
2017-02-03T15:41:20.825Z,168
2017-02-03T15:42:31.180Z,156
2017-02-03T15:43:41.154Z,144
2017-02-03T15:44:51.902Z,136
2017-02-03T15:46:02.683Z,128
2017-02-03T15:47:12.650Z,120
2017-02-03T15:48:23.401Z,108
2017-02-03T15:49:33.774Z,100
2017-02-03T15:50:43.739Z,92
2017-02-03T15:51:54.492Z,84
2017-02-03T15:53:04.466Z,76
2017-02-03T15:54:14.829Z,72
2017-02-03T15:55:25.578Z,64
2017-02-03T15:56:35.941Z,56
2017-02-03T15:57:46.297Z,52
2017-02-03T15:58:56.642Z,44
2017-02-03T16:00:06.617Z,40
2017-02-03T16:01:17.388Z,32
2017-02-03T16:02:26.957Z,28
2017-02-03T16:03:37.300Z,28
2017-02-03T16:04:48.054Z,24
2017-02-03T16:05:58.408Z,20
2017-02-03T16:07:08.771Z,16
2017-02-03T16:08:19.136Z,16
2017-02-03T16:09:29.877Z,16
2017-02-03T16:10:40.621Z,12
2017-02-03T16:11:51.369Z,12
2017-02-03T16:13:01.740Z,8
2017-02-03T16:14:12.494Z,8
2017-02-03T16:15:23.242Z,8
2017-02-03T16:16:33.987Z,8
2017-02-03T16:17:44.729Z,4
2017-02-03T16:18:54.682Z,4
2017-02-03T16:20:05.022Z,8
2017-02-03T16:21:15.775Z,4
2017-02-03T16:22:26.531Z,4
2017-02-03T16:23:37.297Z,4
2017-02-03T16:24:47.298Z,4
2017-02-03T16:25:57.672Z,0
2017-02-03T16:27:08.022Z,0
2017-02-03T16:28:18.770Z,0
2017-02-03T16:29:29.137Z,0
2017-02-03T16:30:39.891Z,0
2017-02-03T16:31:50.650Z,4
2017-02-03T16:33:01.013Z,4
2017-02-03T16:34:11.372Z,0
2017-02-03T16:35:22.126Z,0
2017-02-03T16:36:32.484Z,0
2017-02-03T16:37:43.229Z,0
2017-02-03T16:38:52.804Z,0
2017-02-03T16:40:02.763Z,0
2017-02-03T16:41:12.714Z,0
2017-02-03T16:42:23.465Z,0
2017-02-03T16:43:33.060Z,0
2017-02-03T16:44:43.809Z,0
2017-02-03T16:45:54.582Z,4
2017-02-03T16:47:04.942Z,4
2017-02-03T16:48:14.896Z,4
2017-02-03T16:49:25.647Z,4
2017-02-03T16:50:36.427Z,4
2017-02-03T16:51:46.398Z,0